Time;durP1;ratioP1;P1;durP2;ratioP2;P2;SDS_P1;SDS_P2;PMS_P1;PMS_P2;Temp;Humidity;BMP_temperature;BMP_pressure;BME280_temperature;BME280_humidity;BME280_pressure;Samples;Min_cycle;Max_cycle;Signal;HPM_P1;HPM_P2
2021/12/21 00:00:13;;;;;;;27.92;15.77;;;5.10;71.60;;;;;;4937342;29;20062;-80
2021/12/21 00:02:42;;;;;;;28.10;16.65;;;5.00;71.60;;;;;;4936674;29;20051;-80
2021/12/21 00:05:17;;;;;;;25.13;17.08;;;5.10;71.70;;;;;;4937261;29;20503;-80
2021/12/21 00:07:44;;;;;;;;;;;5.00;71.70;;;;;;4932160;29;20051;-80
2021/12/21 00:10:12;;;;;;;29.13;17.20;;;5.00;71.70;;;;;;4936693;29;19931;-80
2021/12/21 00:12:49;;;;;;;32.95;18.63;;;5.00;71.70;;;;;;4937093;29;20060;-80
2021/12/21 00:15:24;;;;;;;25.80;17.05;;;5.00;71.70;;;;;;4937262;29;20055;-80
2021/12/21 00:17:58;;;;;;;28.27;17.98;;;5.00;71.80;;;;;;4932851;29;20143;-80
2021/12/21 00:20:35;;;;;;;25.58;17.83;;;4.90;71.80;;;;;;4937696;29;20048;-80
2021/12/21 00:25:47;;;;;;;26.92;18.10;;;4.90;71.90;;;;;;4936662;29;20044;-80
2021/12/21 00:28:14;;;;;;;30.27;18.67;;;4.90;71.90;;;;;;4936682;29;20055;-80
2021/12/21 00:30:46;;;;;;;28.38;18.80;;;4.90;72.00;;;;;;4936451;29;20054;-80
2021/12/21 00:33:13;;;;;;;28.80;17.83;;;4.90;72.00;;;;;;4936737;29;20052;-80
2021/12/21 00:35:40;;;;;;;26.45;17.50;;;4.90;72.10;;;;;;4935853;29;20052;-80
2021/12/21 00:38:07;;;;;;;27.15;18.45;;;4.90;72.10;;;;;;4936201;29;20056;-80
2021/12/21 00:40:34;;;;;;;26.45;17.75;;;4.90;72.20;;;;;;4936564;29;20066;-80
2021/12/21 00:43:01;;;;;;;25.80;17.60;;;4.90;72.20;;;;;;4936452;29;20058;-80
2021/12/21 00:45:28;;;;;;;30.83;18.67;;;4.90;72.30;;;;;;4935542;29;20054;-80
2021/12/21 00:47:55;;;;;;;27.55;17.90;;;4.80;72.30;;;;;;4935610;29;20055;-80
2021/12/21 00:50:22;;;;;;;28.23;18.60;;;4.90;72.30;;;;;;4937003;29;20139;-80
2021/12/21 00:52:52;;;;;;;31.67;19.88;;;4.80;72.40;;;;;;4935971;29;20047;-80
2021/12/21 00:55:21;;;;;;;29.00;18.42;;;4.80;72.40;;;;;;4936222;29;20050;-80
2021/12/21 00:57:48;;;;;;;29.38;17.80;;;4.80;72.40;;;;;;4936325;29;20043;-80
2021/12/21 01:00:18;;;;;;;34.05;18.63;;;4.80;72.50;;;;;;4936248;29;20506;-80
2021/12/21 01:02:46;;;;;;;29.15;16.92;;;4.80;72.50;;;;;;4931335;29;20426;-80
2021/12/21 01:05:23;;;;;;;30.58;17.05;;;4.80;72.60;;;;;;4936229;29;20415;-80
2021/12/21 01:07:53;;;;;;;26.15;16.85;;;4.80;72.50;;;;;;4935768;29;20081;-80
2021/12/21 01:10:52;;;;;;;26.83;15.93;;;4.70;72.50;;;;;;4936069;29;20043;-80
2021/12/21 01:16:17;;;;;;;24.75;15.48;;;4.70;72.50;;;;;;4935906;29;20050;-80
2021/12/21 01:18:40;;;;;;;26.23;15.48;;;4.70;72.50;;;;;;4922003;29;20044;-80
2021/12/21 01:21:18;;;;;;;26.63;15.60;;;4.70;72.40;;;;;;4935600;29;20051;-80
2021/12/21 01:26:24;;;;;;;24.65;15.07;;;4.70;72.40;;;;;;4937264;29;20051;-80
2021/12/21 01:29:05;;;;;;;24.67;14.85;;;4.70;72.50;;;;;;4935767;29;20047;-82
2021/12/21 01:35:10;;;;;;;26.38;15.23;;;4.70;72.50;;;;;;4935714;29;20048;-81
2021/12/21 01:37:06;;;;;;;24.88;15.32;;;4.70;72.60;;;;;;4934559;29;20050;-81
2021/12/21 01:42:32;;;;;;;20.52;13.80;;;4.60;72.70;;;;;;4921036;29;20509;-81
2021/12/21 01:50:31;;;;;;;28.67;15.07;;;4.50;72.90;;;;;;4936688;29;20056;-81
2021/12/21 01:52:58;;;;;;;23.35;13.75;;;4.50;73.00;;;;;;4939499;29;20067;-81
2021/12/21 01:55:25;;;;;;;22.83;15.40;;;4.50;73.00;;;;;;4939421;29;20056;-81
2021/12/21 01:57:54;;;;;;;24.13;14.45;;;4.50;73.00;;;;;;4939672;29;20047;-80
2021/12/21 02:00:21;;;;;;;22.80;13.50;;;4.50;73.10;;;;;;4939723;29;20039;-80
2021/12/21 02:02:48;;;;;;;20.60;14.38;;;4.50;73.10;;;;;;4938709;29;20051;-81
2021/12/21 02:05:15;;;;;;;23.17;14.15;;;4.40;73.10;;;;;;4940643;29;20054;-81
2021/12/21 02:07:42;;;;;;;25.80;14.05;;;4.40;73.10;;;;;;4939341;29;20056;-80
2021/12/21 02:10:09;;;;;;;22.58;13.05;;;4.40;73.20;;;;;;4939172;29;20618;-80
2021/12/21 02:12:37;;;;;;;24.20;12.50;;;4.40;73.20;;;;;;4939219;29;20514;-80
2021/12/21 02:15:04;;;;;;;21.52;12.73;;;4.40;73.10;;;;;;4939165;29;20429;-80
2021/12/21 02:21:07;;;;;;;22.92;11.93;;;4.30;73.10;;;;;;4938698;29;20062;-82
2021/12/21 02:23:14;;;;;;;20.48;12.52;;;4.30;73.10;;;;;;4938666;29;20490;-81
2021/12/21 02:28:45;;;;;;;16.42;10.82;;;4.20;73.10;;;;;;4938894;29;20044;-81
2021/12/21 02:31:10;;;;;;;19.92;11.80;;;4.10;73.20;;;;;;4938821;29;20056;-81
2021/12/21 02:33:37;;;;;;;22.92;11.80;;;4.10;73.20;;;;;;4938571;29;20048;-81
2021/12/21 02:36:05;;;;;;;21.92;12.57;;;4.00;73.20;;;;;;4938784;29;20054;-81
2021/12/21 02:38:32;;;;;;;17.63;11.75;;;4.00;73.20;;;;;;4938085;29;20060;-81
2021/12/21 02:40:59;;;;;;;22.05;12.52;;;4.00;73.30;;;;;;4938618;29;20421;-81
2021/12/21 02:43:28;;;;;;;21.65;12.00;;;3.90;73.30;;;;;;4938712;29;20057;-81
2021/12/21 02:45:56;;;;;;;19.60;12.18;;;3.90;73.40;;;;;;4938495;29;20413;-81
2021/12/21 02:48:23;;;;;;;20.35;12.07;;;3.90;73.50;;;;;;4938359;29;20063;-81
2021/12/21 02:50:50;;;;;;;18.52;12.27;;;3.90;73.50;;;;;;4937773;29;20052;-80
2021/12/21 02:53:17;;;;;;;18.88;11.40;;;3.80;73.50;;;;;;4938300;29;20058;-81
2021/12/21 02:55:45;;;;;;;16.42;11.07;;;3.80;73.60;;;;;;4937994;29;20051;-81
2021/12/21 02:58:12;;;;;;;22.23;12.27;;;3.80;73.60;;;;;;4938383;29;20052;-81
2021/12/21 03:00:39;;;;;;;21.90;11.20;;;3.70;73.60;;;;;;4938525;29;20058;-81
2021/12/21 03:03:13;;;;;;;19.90;11.43;;;3.70;73.70;;;;;;4938004;29;20064;-81
2021/12/21 03:05:47;;;;;;;20.58;10.93;;;3.70;73.70;;;;;;4937586;29;20130;-81
2021/12/21 03:16:18;;;;;;;19.42;11.90;;;3.50;73.80;;;;;;4938035;29;20043;-81
2021/12/21 03:18:46;;;;;;;18.70;11.15;;;3.50;73.90;;;;;;4937788;29;20044;-82
2021/12/21 03:21:13;;;;;;;20.95;11.45;;;3.50;73.90;;;;;;4938267;29;20054;-81
2021/12/21 03:23:40;;;;;;;18.33;11.18;;;3.40;74.00;;;;;;4937101;29;20047;-81
2021/12/21 03:26:07;;;;;;;23.55;12.50;;;3.40;74.00;;;;;;4937862;29;20052;-81
2021/12/21 03:28:34;;;;;;;18.77;12.02;;;3.40;74.00;;;;;;4937806;29;20043;-81
2021/12/21 03:31:02;;;;;;;21.08;12.00;;;3.30;74.10;;;;;;4937921;29;20063;-81
2021/12/21 03:33:29;;;;;;;19.70;11.60;;;3.30;74.10;;;;;;4937348;29;20518;-81
2021/12/21 03:35:56;;;;;;;17.33;11.90;;;3.30;74.20;;;;;;4936941;29;20073;-81
2021/12/21 03:38:23;;;;;;;23.05;13.05;;;3.30;74.20;;;;;;4937394;28;20055;-81
2021/12/21 03:40:50;;;;;;;19.33;12.27;;;3.20;74.20;;;;;;4937587;29;20050;-81
2021/12/21 03:43:17;;;;;;;24.38;11.82;;;3.20;74.20;;;;;;4937721;29;20048;-81
2021/12/21 03:45:54;;;;;;;20.05;11.40;;;3.20;74.30;;;;;;4937600;29;20046;-81
2021/12/21 03:48:21;;;;;;;20.15;11.68;;;3.20;74.30;;;;;;4922986;29;20043;-81
2021/12/21 03:50:48;;;;;;;20.95;12.18;;;3.10;74.40;;;;;;4936615;29;20048;-80
2021/12/21 03:53:15;;;;;;;16.95;11.10;;;3.10;74.40;;;;;;4938990;29;20066;-81
2021/12/21 03:55:42;;;;;;;17.40;11.38;;;3.00;74.40;;;;;;4937151;29;20445;-81
2021/12/21 03:58:09;;;;;;;20.92;11.77;;;3.00;74.50;;;;;;4937435;29;20064;-80
2021/12/21 04:00:36;;;;;;;17.65;10.80;;;3.00;74.50;;;;;;4937173;29;20102;-80
2021/12/21 04:03:03;;;;;;;20.52;11.93;;;3.00;74.60;;;;;;4937317;29;20064;-80
2021/12/21 04:05:31;;;;;;;17.40;11.90;;;3.00;74.60;;;;;;4935811;29;20087;-80
2021/12/21 04:07:58;;;;;;;19.38;11.18;;;2.90;74.60;;;;;;4937072;29;20053;-80
2021/12/21 04:10:25;;;;;;;18.95;11.70;;;2.90;74.60;;;;;;4937076;29;20044;-80
2021/12/21 04:12:52;;;;;;;24.25;12.75;;;2.90;74.60;;;;;;4936775;29;20519;-81
2021/12/21 04:15:23;;;;;;;22.35;12.13;;;2.90;74.70;;;;;;4936815;29;20043;-80
2021/12/21 04:17:50;;;;;;;21.30;13.77;;;2.90;74.70;;;;;;4936234;29;20063;-81
2021/12/21 04:20:17;;;;;;;19.63;12.77;;;2.90;74.80;;;;;;4936728;29;20055;-80
2021/12/21 04:22:44;;;;;;;21.30;13.85;;;2.80;74.80;;;;;;4936817;29;20047;-80
2021/12/21 04:25:12;;;;;;;22.00;14.85;;;2.70;74.80;;;;;;4936651;29;20059;-81
2021/12/21 04:27:39;;;;;;;22.48;13.98;;;2.70;74.80;;;;;;4937052;29;20054;-80
2021/12/21 04:30:06;;;;;;;24.60;13.65;;;2.70;74.80;;;;;;4936537;29;20506;-80
2021/12/21 04:32:33;;;;;;;28.88;14.88;;;2.70;74.90;;;;;;4935926;29;20048;-80
2021/12/21 04:35:00;;;;;;;24.27;15.18;;;2.70;74.90;;;;;;4936590;29;20103;-80
2021/12/21 04:37:29;;;;;;;29.05;15.02;;;2.70;74.90;;;;;;4936565;29;20051;-80
2021/12/21 04:40:03;;;;;;;26.23;14.80;;;2.70;75.00;;;;;;4936689;29;20050;-80
2021/12/21 04:42:37;;;;;;;25.17;15.32;;;2.60;75.00;;;;;;4936694;29;20099;-80
2021/12/21 04:45:04;;;;;;;28.75;16.80;;;2.60;75.10;;;;;;4936197;29;20059;-81
2021/12/21 04:47:31;;;;;;;26.17;15.75;;;2.60;75.10;;;;;;4935661;29;20047;-80
2021/12/21 04:49:58;;;;;;;23.92;14.32;;;2.50;75.10;;;;;;4936357;29;20415;-80
2021/12/21 04:52:25;;;;;;;21.08;14.82;;;2.50;75.10;;;;;;4936270;29;20430;-80
2021/12/21 04:54:54;;;;;;;24.75;15.60;;;2.50;75.10;;;;;;4936010;29;20130;-80
2021/12/21 04:57:22;;;;;;;31.05;16.38;;;2.50;75.20;;;;;;4936515;29;20514;-81
2021/12/21 04:59:49;;;;;;;26.42;16.92;;;2.50;75.20;;;;;;4935029;29;20052;-81
2021/12/21 05:02:16;;;;;;;29.13;16.40;;;2.50;75.20;;;;;;4935696;29;20048;-81
2021/12/21 05:04:43;;;;;;;27.52;16.33;;;2.40;75.20;;;;;;4936102;29;20463;-81
2021/12/21 05:07:12;;;;;;;27.55;15.95;;;2.40;75.30;;;;;;4936106;29;20047;-81
2021/12/21 05:09:45;;;;;;;31.42;17.10;;;2.40;75.30;;;;;;4936321;29;20060;-81
2021/12/21 05:12:13;;;;;;;29.63;16.75;;;2.40;75.30;;;;;;4936116;29;20434;-81
2021/12/21 05:14:40;;;;;;;30.55;17.42;;;2.40;75.40;;;;;;4934943;29;20446;-81
2021/12/21 05:17:07;;;;;;;29.13;16.35;;;2.40;75.40;;;;;;4936044;29;20118;-81
2021/12/21 05:19:34;;;;;;;32.83;17.52;;;2.40;75.40;;;;;;4936088;29;20142;-81
2021/12/21 05:22:01;;;;;;;27.75;18.25;;;2.30;75.40;;;;;;4936039;29;20047;-81
2021/12/21 05:24:28;;;;;;;31.90;17.30;;;2.30;75.40;;;;;;4936172;29;20055;-81
2021/12/21 05:26:55;;;;;;;27.80;17.88;;;2.30;75.40;;;;;;4934928;29;20051;-81
2021/12/21 05:29:23;;;;;;;31.80;18.77;;;2.30;75.50;;;;;;4935547;28;20055;-81
2021/12/21 05:31:50;;;;;;;31.25;17.83;;;2.20;75.50;;;;;;4935731;29;20043;-81
2021/12/21 05:34:17;;;;;;;31.80;18.25;;;2.20;75.50;;;;;;4930365;29;20052;-81
2021/12/21 05:36:44;;;;;;;27.00;16.88;;;2.20;75.60;;;;;;4935648;29;20047;-81
2021/12/21 05:39:19;;;;;;;31.73;18.40;;;2.20;75.60;;;;;;4935921;29;20061;-82
2021/12/21 05:41:51;;;;;;;29.77;16.95;;;2.20;75.60;;;;;;4931120;29;20048;-82
2021/12/21 05:44:20;;;;;;;32.42;17.83;;;2.20;75.60;;;;;;4935496;29;20152;-82
2021/12/21 05:46:52;;;;;;;30.55;18.17;;;2.20;75.60;;;;;;4935676;29;20048;-82
2021/12/21 05:49:20;;;;;;;26.15;16.90;;;2.10;75.70;;;;;;4935739;29;20048;-82
2021/12/21 05:51:47;;;;;;;33.03;17.55;;;2.10;75.70;;;;;;4935805;29;20043;-82
2021/12/21 05:54:18;;;;;;;31.30;17.73;;;2.10;75.70;;;;;;4935599;29;20051;-82
2021/12/21 05:56:45;;;;;;;29.67;18.55;;;2.00;75.70;;;;;;4930443;29;20091;-82
2021/12/21 05:59:13;;;;;;;27.77;17.95;;;2.00;75.70;;;;;;4935760;29;20422;-82
2021/12/21 06:01:40;;;;;;;32.05;18.77;;;2.00;75.70;;;;;;4935464;29;20529;-82
2021/12/21 06:04:07;;;;;;;29.92;18.33;;;2.00;75.70;;;;;;4935542;29;20052;-82
2021/12/21 06:06:35;;;;;;;29.08;18.05;;;2.00;75.70;;;;;;4935699;29;20044;-82
2021/12/21 06:09:06;;;;;;;30.65;18.25;;;1.90;75.70;;;;;;4935584;29;20056;-82
2021/12/21 06:11:38;;;;;;;33.65;18.48;;;1.90;75.70;;;;;;4933166;29;20047;-82
2021/12/21 06:27:29;;;;;;;36.38;18.15;;;1.80;75.80;;;;;;4933053;29;20058;-82
2021/12/21 06:29:56;;;;;;;35.10;19.80;;;1.80;75.90;;;;;;4934533;29;20047;-83
2021/12/21 06:32:23;;;;;;;29.60;18.67;;;1.80;75.90;;;;;;4936620;29;20131;-82
2021/12/21 06:34:51;;;;;;;38.53;19.77;;;1.70;75.90;;;;;;4936587;29;20051;-82
2021/12/21 06:37:18;;;;;;;31.45;17.20;;;1.70;75.90;;;;;;4936594;29;20049;-83
2021/12/21 06:39:46;;;;;;;33.03;19.45;;;1.70;76.00;;;;;;4936693;29;20154;-83
2021/12/21 06:42:14;;;;;;;30.35;18.35;;;1.70;76.00;;;;;;4936363;29;20040;-83
2021/12/21 06:44:43;;;;;;;33.65;18.65;;;1.60;76.00;;;;;;4935799;29;20053;-83
2021/12/21 06:52:28;;;;;;;30.52;18.85;;;1.60;76.10;;;;;;4936886;29;20050;-82
2021/12/21 06:54:56;;;;;;;31.23;19.08;;;1.60;76.10;;;;;;4937837;29;20526;-82
2021/12/21 06:57:23;;;;;;;30.52;18.67;;;1.50;76.10;;;;;;4938694;29;20059;-82
2021/12/21 06:59:50;;;;;;;28.92;18.15;;;1.50;76.10;;;;;;4937587;29;20410;-83
2021/12/21 07:02:17;;;;;;;28.08;17.67;;;1.50;76.10;;;;;;4938046;29;20054;-82
2021/12/21 07:04:45;;;;;;;38.58;19.75;;;1.50;76.10;;;;;;4938375;29;20505;-83
2021/12/21 07:07:12;;;;;;;30.13;18.67;;;1.50;76.20;;;;;;4938220;29;20446;-82
2021/12/21 07:09:43;;;;;;;33.05;18.38;;;1.50;76.20;;;;;;4937972;29;20059;-82
2021/12/21 07:18:09;;;;;;;31.10;18.13;;;1.50;76.20;;;;;;4937187;29;20387;-82
2021/12/21 07:20:37;;;;;;;36.80;19.83;;;1.40;76.20;;;;;;4936323;29;20047;-83
2021/12/21 07:23:04;;;;;;;38.80;19.15;;;1.40;76.20;;;;;;4938035;29;20057;-83
2021/12/21 07:25:31;;;;;;;33.03;18.30;;;1.40;76.10;;;;;;4937564;29;20043;-83
2021/12/21 07:27:59;;;;;;;31.73;18.90;;;1.40;76.20;;;;;;4937902;29;20062;-83
2021/12/21 07:30:25;;;;;;;29.63;17.17;;;1.40;76.10;;;;;;4938001;29;20052;-83
2021/12/21 07:32:53;;;;;;;37.35;18.00;;;1.30;76.10;;;;;;4937007;29;20061;-83
2021/12/21 07:35:20;;;;;;;33.42;19.27;;;1.30;76.20;;;;;;4937804;29;20051;-83
2021/12/21 07:37:47;;;;;;;30.85;18.35;;;1.30;76.20;;;;;;4937676;29;20046;-83
2021/12/21 07:40:15;;;;;;;36.63;18.50;;;1.30;76.20;;;;;;4937075;29;20522;-83
2021/12/21 07:42:42;;;;;;;31.42;18.20;;;1.30;76.20;;;;;;4937599;29;20083;-83
2021/12/21 07:45:10;;;;;;;31.17;18.10;;;1.20;76.20;;;;;;4937678;29;20794;-83
2021/12/21 07:47:38;;;;;;;33.28;18.83;;;1.20;76.30;;;;;;4936933;29;20048;-83
2021/12/21 07:50:09;;;;;;;32.97;18.88;;;1.20;76.30;;;;;;4937373;29;20047;-83
2021/12/21 07:52:36;;;;;;;29.60;18.58;;;1.20;76.30;;;;;;4936508;29;20058;-83
2021/12/21 07:55:05;;;;;;;30.92;19.02;;;1.20;76.30;;;;;;4937260;29;20051;-83
2021/12/21 07:57:32;;;;;;;32.22;18.73;;;1.20;76.30;;;;;;4938077;29;20043;-83
2021/12/21 08:00:03;;;;;;;30.15;17.45;;;1.20;76.40;;;;;;4936713;29;20062;-84
2021/12/21 08:02:30;;;;;;;28.52;18.20;;;1.20;76.40;;;;;;4934343;29;20550;-84
2021/12/21 08:04:58;;;;;;;40.30;20.75;;;1.10;76.40;;;;;;4931381;29;20138;-82
2021/12/21 08:07:32;;;;;;;30.13;18.80;;;1.10;76.40;;;;;;4936418;29;20415;-84
2021/12/21 08:10:07;;;;;;;;;;;1.10;76.40;;;;;;4939416;29;20051;-81
2021/12/21 08:12:34;;;;;;;34.13;19.30;;;1.10;76.40;;;;;;4936600;29;19924;-81
2021/12/21 08:15:01;;;;;;;30.45;18.42;;;1.00;76.40;;;;;;4936389;29;20051;-82
2021/12/21 08:17:28;;;;;;;36.67;20.33;;;1.00;76.40;;;;;;4935755;28;20052;-81
2021/12/21 08:19:56;;;;;;;45.70;23.60;;;1.00;76.40;;;;;;4936166;29;20051;-81
2021/12/21 08:22:26;;;;;;;42.05;24.13;;;1.00;76.50;;;;;;4936082;29;20044;-82
2021/12/21 08:24:53;;;;;;;44.92;27.40;;;1.00;76.50;;;;;;4936515;29;20506;-81
2021/12/21 08:27:20;;;;;;;53.30;25.27;;;1.00;76.50;;;;;;4936342;29;20503;-82
2021/12/21 08:29:47;;;;;;;38.47;23.70;;;1.00;76.60;;;;;;4935613;29;20052;-81
2021/12/21 08:32:14;;;;;;;40.83;23.80;;;1.00;76.70;;;;;;4936533;28;20507;-82
2021/12/21 08:34:42;;;;;;;39.70;23.60;;;1.00;76.70;;;;;;4936170;29;20048;-82
2021/12/21 08:37:09;;;;;;;38.63;23.63;;;0.90;76.70;;;;;;4936219;29;20128;-82
2021/12/21 08:39:40;;;;;;;48.75;24.08;;;1.00;76.80;;;;;;4936420;29;20155;-81
2021/12/21 08:42:12;;;;;;;41.70;23.92;;;1.00;76.80;;;;;;4934711;29;20048;-81
2021/12/21 08:44:41;;;;;;;51.35;24.23;;;1.00;76.90;;;;;;4935585;29;20044;-81
2021/12/21 08:47:08;;;;;;;43.00;24.33;;;1.00;76.90;;;;;;4938614;29;20407;-81
2021/12/21 08:49:36;;;;;;;43.67;23.60;;;0.90;77.00;;;;;;4935700;29;20051;-81
2021/12/21 08:52:04;;;;;;;42.78;23.48;;;1.00;77.10;;;;;;4935663;29;20689;-81
2021/12/21 08:54:31;;;;;;;41.60;23.58;;;1.00;77.10;;;;;;4936308;29;20059;-81
2021/12/21 08:56:58;;;;;;;41.95;23.90;;;0.90;77.20;;;;;;4934775;29;20434;-82
2021/12/21 08:59:25;;;;;;;43.25;23.65;;;1.00;77.20;;;;;;4935551;28;20525;-81
2021/12/21 09:01:53;;;;;;;50.20;24.23;;;1.00;77.30;;;;;;4935664;29;20529;-82
2021/12/21 09:04:22;;;;;;;45.17;23.40;;;1.00;77.30;;;;;;4935588;29;20062;-82
2021/12/21 09:06:49;;;;;;;41.50;24.23;;;1.00;77.40;;;;;;4935640;29;20052;-81
2021/12/21 09:09:16;;;;;;;37.85;23.30;;;1.00;77.40;;;;;;4935758;29;20432;-82
2021/12/21 09:11:45;;;;;;;40.00;23.80;;;1.00;77.50;;;;;;4934720;29;20062;-84
2021/12/21 09:14:13;;;;;;;44.95;23.63;;;1.10;77.60;;;;;;4935403;29;20048;-84
2021/12/21 09:16:40;;;;;;;41.45;23.73;;;1.10;77.60;;;;;;4935617;29;20054;-84
2021/12/21 09:19:07;;;;;;;56.53;25.65;;;1.10;77.70;;;;;;4934214;29;20051;-84
2021/12/21 09:21:35;;;;;;;44.53;24.23;;;1.10;77.70;;;;;;4935408;29;20522;-84
2021/12/21 09:24:02;;;;;;;42.58;24.40;;;1.10;77.70;;;;;;4934937;29;20048;-84
2021/12/21 09:26:30;;;;;;;45.17;27.30;;;1.10;77.80;;;;;;4932489;29;20501;-84
2021/12/21 09:28:57;;;;;;;46.45;26.77;;;1.20;77.80;;;;;;4935474;29;20052;-84
2021/12/21 09:31:24;;;;;;;50.47;26.02;;;1.20;77.80;;;;;;4935652;29;20056;-84
2021/12/21 09:33:51;;;;;;;48.88;26.13;;;1.20;77.90;;;;;;4934924;29;20046;-84
2021/12/21 09:36:18;;;;;;;53.47;27.00;;;1.20;77.90;;;;;;4920477;29;20054;-84
2021/12/21 09:38:45;;;;;;;40.90;25.08;;;1.20;77.90;;;;;;4930778;29;20070;-83
2021/12/21 09:41:13;;;;;;;47.80;26.02;;;1.20;78.00;;;;;;4935001;29;20415;-84
2021/12/21 09:43:43;;;;;;;48.10;26.08;;;1.20;78.00;;;;;;4935439;29;20043;-84
2021/12/21 09:46:10;;;;;;;47.63;25.52;;;1.30;78.00;;;;;;4937931;29;20051;-83
2021/12/21 09:48:38;;;;;;;37.78;24.70;;;1.30;78.10;;;;;;4935089;29;20047;-84
2021/12/21 09:51:06;;;;;;;45.75;25.27;;;1.40;78.10;;;;;;4935496;29;20052;-83
2021/12/21 09:53:34;;;;;;;43.33;25.38;;;1.40;78.10;;;;;;4934459;29;20048;-84
2021/12/21 09:56:04;;;;;;;43.00;25.38;;;1.50;78.10;;;;;;4934693;29;20055;-83
2021/12/21 09:58:32;;;;;;;39.53;24.27;;;1.60;78.10;;;;;;4935393;29;20059;-83
2021/12/21 10:01:00;;;;;;;45.00;23.88;;;1.70;78.10;;;;;;4935090;29;20052;-83
2021/12/21 10:03:27;;;;;;;46.35;24.42;;;1.90;78.00;;;;;;4934594;29;20048;-82
2021/12/21 10:06:12;;;;;;;39.78;23.15;;;2.00;77.90;;;;;;4938023;29;20063;-82
2021/12/21 10:08:39;;;;;;;42.05;22.13;;;2.10;77.70;;;;;;4937368;29;20052;-82
2021/12/21 10:11:16;;;;;;;43.25;24.85;;;2.30;77.60;;;;;;4938652;29;20062;-82
2021/12/21 10:13:43;;;;;;;41.30;25.35;;;2.50;77.40;;;;;;4938878;29;20043;-81
2021/12/21 10:16:10;;;;;;;46.90;22.92;;;2.70;77.20;;;;;;4938701;29;20051;-82
2021/12/21 10:18:41;;;;;;;43.95;23.95;;;2.80;76.90;;;;;;4938384;29;20529;-81
2021/12/21 10:21:12;;;;;;;40.75;21.90;;;2.90;76.70;;;;;;4938781;29;20098;-81
2021/12/21 10:23:42;;;;;;;38.75;20.30;;;3.10;76.40;;;;;;4938007;29;20043;-81
2021/12/21 10:26:13;;;;;;;35.25;20.33;;;3.30;76.10;;;;;;4938337;29;20052;-82
2021/12/21 10:28:47;;;;;;;36.20;21.33;;;3.40;75.80;;;;;;4938603;29;20414;-82
2021/12/21 10:31:13;;;;;;;36.90;21.55;;;3.60;75.50;;;;;;4938563;29;20585;-82
2021/12/21 10:33:44;;;;;;;40.22;21.92;;;3.70;75.20;;;;;;4937867;29;20048;-82
2021/12/21 10:36:13;;;;;;;35.78;21.40;;;3.90;74.90;;;;;;4938425;29;20046;-82
2021/12/21 10:38:51;;;;;;;40.00;22.45;;;4.10;74.60;;;;;;4936634;29;20044;-82
2021/12/21 10:41:20;;;;;;;42.40;21.70;;;4.20;74.30;;;;;;4938023;29;20062;-83
2021/12/21 10:43:58;;;;;;;37.97;22.35;;;4.30;74.00;;;;;;4938279;29;20047;-83
2021/12/21 10:46:28;;;;;;;38.75;19.67;;;4.40;73.80;;;;;;4940642;29;20040;-82
2021/12/21 10:49:07;;;;;;;42.45;22.50;;;4.50;73.50;;;;;;4937999;29;20384;-82
2021/12/21 10:51:35;;;;;;;38.25;22.15;;;4.70;73.30;;;;;;4938199;29;20050;-82
2021/12/21 10:54:03;;;;;;;37.80;20.95;;;4.80;73.00;;;;;;4938118;29;20510;-82
2021/12/21 10:56:33;;;;;;;38.83;21.02;;;4.80;72.80;;;;;;4935237;29;20064;-82
2021/12/21 10:59:10;;;;;;;35.70;19.92;;;4.90;72.60;;;;;;4938148;29;20454;-82
2021/12/21 11:01:44;;;;;;;33.40;19.70;;;5.00;72.30;;;;;;4937119;29;20529;-81
2021/12/21 11:04:16;;;;;;;37.63;20.67;;;5.00;72.10;;;;;;4937992;29;20052;-81
2021/12/21 11:06:48;;;;;;;36.28;20.77;;;5.10;72.00;;;;;;4938278;29;20134;-82
2021/12/21 11:09:15;;;;;;;36.45;20.40;;;5.20;71.80;;;;;;4937946;29;20048;-81
2021/12/21 11:11:48;;;;;;;34.08;20.50;;;5.20;71.70;;;;;;4937046;29;20059;-82
2021/12/21 11:14:17;;;;;;;34.13;18.98;;;5.20;71.60;;;;;;4939349;29;20534;-82
2021/12/21 11:16:52;;;;;;;40.33;19.25;;;5.20;71.40;;;;;;4937105;29;20058;-82
2021/12/21 11:19:21;;;;;;;36.13;19.27;;;5.20;71.30;;;;;;4937909;29;20055;-82
2021/12/21 11:21:49;;;;;;;40.63;18.83;;;5.20;71.20;;;;;;4937645;29;20054;-81
2021/12/21 11:24:18;;;;;;;31.00;19.48;;;5.20;71.10;;;;;;4936286;29;20059;-82
2021/12/21 11:26:47;;;;;;;36.90;20.17;;;5.20;71.00;;;;;;4932812;29;20132;-81
2021/12/21 11:29:18;;;;;;;34.15;19.17;;;5.20;71.00;;;;;;4937888;28;20047;-81
2021/12/21 11:31:51;;;;;;;34.25;19.45;;;5.10;71.00;;;;;;4936786;29;20065;-81
2021/12/21 11:34:21;;;;;;;29.92;18.08;;;5.10;71.10;;;;;;4937515;29;20043;-81
2021/12/21 11:39:40;;;;;;;38.72;19.73;;;5.00;71.30;;;;;;4924784;29;20047;-80
2021/12/21 11:42:11;;;;;;;34.25;19.40;;;5.00;71.40;;;;;;4937480;29;20070;-80
2021/12/21 11:45:14;;;;;;;36.65;19.77;;;5.00;71.50;;;;;;4936241;29;20047;-80
2021/12/21 11:47:53;;;;;;;33.70;19.58;;;4.90;71.60;;;;;;4938382;29;20052;-80
2021/12/21 11:50:20;;;;;;;37.33;19.48;;;4.90;71.80;;;;;;4937323;29;20122;-81
2021/12/21 11:52:50;;;;;;;38.33;18.83;;;4.90;71.80;;;;;;4937207;29;20156;-81
2021/12/21 11:55:23;;;;;;;33.70;20.40;;;4.80;71.90;;;;;;4936408;29;20055;-80
2021/12/21 11:57:54;;;;;;;36.13;18.17;;;4.80;72.00;;;;;;4937209;29;20556;-80
2021/12/21 12:00:28;;;;;;;33.40;18.23;;;4.80;72.10;;;;;;4921781;29;20062;-81
2021/12/21 12:03:09;;;;;;;32.80;18.63;;;4.80;72.10;;;;;;4935804;29;20044;-80
2021/12/21 12:05:40;;;;;;;28.42;16.88;;;4.70;72.20;;;;;;4934928;29;20058;-81
2021/12/21 12:08:12;;;;;;;31.25;17.10;;;4.60;72.20;;;;;;4931215;29;20055;-81
2021/12/21 12:10:49;;;;;;;34.63;17.02;;;4.70;72.30;;;;;;4937017;29;20461;-81
2021/12/21 12:13:33;;;;;;;30.13;16.95;;;4.60;72.40;;;;;;4937061;29;20048;-81
2021/12/21 12:16:08;;;;;;;26.48;16.52;;;4.60;72.50;;;;;;4936293;29;20058;-80
2021/12/21 12:18:49;;;;;;;31.00;16.90;;;4.60;72.70;;;;;;4937036;29;20044;-80
2021/12/21 12:21:28;;;;;;;32.60;17.17;;;4.60;72.90;;;;;;4936600;29;20052;-80
2021/12/21 12:24:00;;;;;;;30.90;17.45;;;4.50;73.00;;;;;;4932716;29;20055;-80
2021/12/21 12:26:28;;;;;;;28.60;17.02;;;4.50;73.10;;;;;;4937242;29;20059;-80
2021/12/21 12:29:09;;;;;;;26.60;16.15;;;4.50;73.20;;;;;;4936242;29;20047;-80
2021/12/21 12:31:38;;;;;;;28.27;15.95;;;4.50;73.20;;;;;;4936169;29;20059;-80
2021/12/21 12:34:06;;;;;;;25.45;15.70;;;4.60;73.30;;;;;;4936522;29;20048;-81
2021/12/21 12:36:38;;;;;;;24.50;14.43;;;4.60;73.30;;;;;;4936249;29;20047;-80
2021/12/21 12:39:08;;;;;;;28.75;15.77;;;4.60;73.30;;;;;;4935986;29;20051;-80
2021/12/21 12:41:46;;;;;;;26.65;15.02;;;4.60;73.30;;;;;;4935503;29;20083;-80
2021/12/21 12:44:22;;;;;;;24.80;14.55;;;4.60;73.30;;;;;;4936088;29;20056;-80
2021/12/21 12:46:58;;;;;;;26.60;15.45;;;4.60;73.20;;;;;;4938156;29;20521;-80
2021/12/21 12:49:28;;;;;;;24.15;14.68;;;4.70;73.20;;;;;;4935979;29;20044;-80
2021/12/21 12:52:15;;;;;;;24.17;13.93;;;4.70;73.20;;;;;;4936419;29;20506;-80
2021/12/21 12:54:52;;;;;;;24.67;14.10;;;4.70;73.20;;;;;;4936381;29;20050;-80
2021/12/21 12:57:37;;;;;;;22.83;14.18;;;4.70;73.20;;;;;;4921264;29;20043;-80
2021/12/21 13:00:13;;;;;;;25.08;14.40;;;4.70;73.20;;;;;;4934684;29;20061;-80
2021/12/21 13:03:02;;;;;;;22.30;13.38;;;4.80;73.20;;;;;;4935656;29;20083;-80
2021/12/21 13:05:34;;;;;;;23.92;13.73;;;4.80;73.10;;;;;;4932243;29;20138;-80
2021/12/21 13:08:12;;;;;;;23.02;13.40;;;4.90;73.10;;;;;;4936327;29;20055;-80
2021/12/21 13:10:41;;;;;;;23.83;12.75;;;4.80;73.10;;;;;;4936355;29;20117;-80
2021/12/21 13:13:09;;;;;;;25.77;12.70;;;4.90;73.00;;;;;;4935856;29;20052;-80
2021/12/21 13:15:42;;;;;;;22.08;11.35;;;4.90;73.00;;;;;;4937581;29;20053;-80
2021/12/21 13:18:17;;;;;;;18.25;11.70;;;4.90;72.90;;;;;;4936191;29;20058;-80
2021/12/21 13:20:47;;;;;;;19.63;11.68;;;4.90;72.80;;;;;;4935469;29;20541;-80
2021/12/21 13:23:22;;;;;;;19.50;12.45;;;5.00;72.80;;;;;;4936218;29;20052;-80
2021/12/21 13:26:00;;;;;;;22.70;11.75;;;5.00;72.70;;;;;;4935736;29;20044;-80
2021/12/21 13:28:30;;;;;;;20.10;11.73;;;5.00;72.60;;;;;;4935966;29;20142;-81
2021/12/21 13:30:58;;;;;;;18.23;11.02;;;5.00;72.50;;;;;;4935838;29;20060;-80
2021/12/21 13:33:29;;;;;;;20.77;11.15;;;5.10;72.40;;;;;;4935897;29;20058;-81
2021/12/21 13:36:03;;;;;;;21.67;11.55;;;5.10;72.30;;;;;;4935006;29;20051;-80
2021/12/21 13:38:30;;;;;;;21.20;11.65;;;5.10;72.20;;;;;;4932382;29;20054;-80
2021/12/21 13:41:13;;;;;;;21.20;11.70;;;5.20;72.20;;;;;;4935406;29;20414;-81
2021/12/21 13:43:56;;;;;;;21.75;11.80;;;5.20;72.10;;;;;;4935770;29;20040;-81
2021/12/21 13:46:24;;;;;;;18.88;10.35;;;5.20;72.00;;;;;;4935923;29;20421;-80
2021/12/21 13:48:54;;;;;;;30.15;11.60;;;5.20;71.90;;;;;;4935805;29;20059;-81
2021/12/21 13:51:24;;;;;;;23.48;11.82;;;5.30;71.90;;;;;;4920972;29;20509;-81